createdAt,value
2018-07-07T14:46:22.087Z,2284.00
2018-07-07T14:47:21.716Z,2332.00
2018-07-07T14:48:21.686Z,2428.00
2018-07-07T14:49:21.640Z,2488.00
2018-07-07T14:50:21.616Z,2576.00
2018-07-07T14:51:21.607Z,2664.00
2018-07-07T14:52:21.687Z,2756.00
2018-07-07T14:53:21.572Z,2856.00
2018-07-07T14:54:21.567Z,2972.00
2018-07-07T14:55:21.558Z,3088.00
2018-07-07T14:56:21.517Z,3140.00
2018-07-07T14:57:21.489Z,3252.00
2018-07-07T14:58:21.645Z,3376.00
2018-07-07T14:59:21.468Z,3452.00
2018-07-07T15:00:21.442Z,3568.00
2018-07-07T15:01:21.424Z,3752.00
2018-07-07T15:02:21.414Z,3956.00
2018-07-07T15:03:21.543Z,1560.00
2018-07-07T15:04:21.496Z,1456.00
2018-07-07T15:05:21.363Z,4124.00
2018-07-07T15:06:21.340Z,4120.00
2018-07-07T15:07:21.320Z,4132.00
2018-07-07T15:08:21.341Z,4148.00
2018-07-07T15:09:21.397Z,4160.00
2018-07-07T15:10:21.255Z,4128.00
2018-07-07T15:11:21.258Z,4092.00
2018-07-07T15:12:21.232Z,4088.00
2018-07-07T15:13:21.250Z,4088.00
2018-07-07T15:14:21.314Z,4120.00
2018-07-07T15:15:21.186Z,4108.00
2018-07-07T15:16:21.155Z,4092.00
2018-07-07T15:17:21.159Z,4032.00
2018-07-07T15:18:21.164Z,4000.00
2018-07-07T15:19:21.201Z,4008.00
2018-07-07T15:20:21.113Z,3972.00
2018-07-07T15:21:21.094Z,3980.00
2018-07-07T15:22:21.077Z,3952.00
2018-07-07T15:23:21.059Z,3912.00
2018-07-07T15:24:21.088Z,3924.00
2018-07-07T15:25:21.025Z,3880.00
2018-07-07T15:26:21.021Z,3856.00
2018-07-07T15:27:21.011Z,3836.00
2018-07-07T15:28:20.979Z,3836.00
2018-07-07T15:29:21.085Z,3844.00
2018-07-07T15:30:21.009Z,3852.00
2018-07-07T15:31:20.932Z,3808.00
2018-07-07T15:32:20.916Z,3812.00
2018-07-07T15:33:20.906Z,3848.00
2018-07-07T15:34:21.097Z,3860.00
2018-07-07T15:35:20.873Z,3868.00
2018-07-07T15:36:20.857Z,3860.00
2018-07-07T15:37:20.856Z,3876.00
2018-07-07T15:38:20.845Z,3868.00
2018-07-07T15:39:20.929Z,3864.00
2018-07-07T15:40:20.792Z,3884.00
2018-07-07T15:41:20.791Z,3876.00
2018-07-07T15:42:20.778Z,3892.00
2018-07-07T15:43:20.736Z,3904.00
2018-07-07T15:44:20.750Z,3912.00
2018-07-07T15:45:20.759Z,3928.00
2018-07-07T15:46:20.701Z,2976.00
2018-07-07T15:47:20.693Z,3840.00
2018-07-07T15:48:20.685Z,3820.00
2018-07-07T15:49:20.692Z,3840.00
2018-07-07T15:50:20.720Z,3280.00
2018-07-07T15:51:20.676Z,3896.00
2018-07-07T15:52:20.692Z,4000.00
2018-07-07T15:53:20.593Z,3984.00
2018-07-07T15:54:20.592Z,3720.00
2018-07-07T15:55:20.674Z,3964.00
2018-07-07T15:56:20.622Z,2668.00
2018-07-07T15:57:20.579Z,3736.00
2018-07-07T15:58:20.537Z,3552.00
2018-07-07T15:59:20.520Z,3540.00
2018-07-07T16:00:20.493Z,4120.00
2018-07-07T16:01:20.523Z,3508.00
2018-07-07T16:02:20.501Z,4208.00
2018-07-07T16:03:20.444Z,1396.00
2018-07-07T16:04:20.417Z,2632.00
2018-07-07T16:05:20.409Z,4132.00
2018-07-07T16:06:20.415Z,2764.00
2018-07-07T16:07:20.478Z,3916.00
2018-07-07T16:08:20.414Z,3880.00
2018-07-07T16:09:20.372Z,3696.00
2018-07-07T16:10:20.330Z,3860.00
2018-07-07T16:11:20.336Z,3736.00
2018-07-07T16:12:20.412Z,2312.00
2018-07-07T16:13:20.306Z,1564.00
2018-07-07T16:14:20.271Z,3228.00
2018-07-07T16:15:20.312Z,1720.00
2018-07-07T16:16:20.250Z,1376.00
2018-07-07T16:17:20.413Z,1564.00
2018-07-07T16:18:20.226Z,3568.00
2018-07-07T16:19:20.201Z,804.00
2018-07-07T16:20:20.214Z,920.00
2018-07-07T16:21:20.194Z,1400.00
2018-07-07T16:22:20.268Z,1572.00
2018-07-07T16:23:20.168Z,3004.00
2018-07-07T16:24:20.178Z,3176.00
2018-07-07T16:25:20.122Z,3088.00
2018-07-07T16:26:20.120Z,2792.00
2018-07-07T16:27:20.209Z,1260.00
2018-07-07T16:28:20.095Z,924.00
2018-07-07T16:29:20.086Z,816.00
2018-07-07T16:30:20.023Z,796.00
2018-07-07T16:31:20.058Z,780.00
2018-07-07T16:32:20.108Z,740.00
2018-07-07T16:33:20.015Z,728.00
2018-07-07T16:34:19.981Z,752.00
2018-07-07T16:35:19.979Z,732.00
2018-07-07T16:36:19.969Z,756.00
2018-07-07T16:37:19.998Z,780.00
2018-07-07T16:38:19.944Z,792.00
2018-07-07T16:39:19.897Z,768.00
2018-07-07T16:40:19.907Z,792.00
2018-07-07T16:41:20.007Z,776.00
2018-07-07T16:42:19.873Z,784.00
2018-07-07T16:43:19.946Z,836.00
2018-07-07T16:44:19.817Z,848.00
2018-07-07T16:45:19.854Z,804.00
2018-07-07T16:46:19.796Z,792.00
2018-07-07T16:47:19.784Z,768.00
2018-07-07T16:48:19.755Z,732.00
2018-07-07T16:49:19.876Z,700.00
2018-07-07T16:50:19.719Z,716.00
2018-07-07T16:51:19.699Z,776.00
2018-07-07T16:52:19.688Z,892.00
2018-07-07T16:53:19.685Z,1020.00
2018-07-07T16:54:19.823Z,1508.00
2018-07-07T16:55:19.629Z,1668.00
2018-07-07T16:56:19.620Z,1368.00
2018-07-07T16:57:19.634Z,1148.00
2018-07-07T16:58:19.581Z,1148.00
2018-07-07T16:59:19.743Z,1120.00
2018-07-07T17:00:19.588Z,1184.00
2018-07-07T17:01:19.540Z,1192.00
2018-07-07T17:02:19.528Z,1204.00
2018-07-07T17:03:19.490Z,1176.00
2018-07-07T17:04:19.688Z,1072.00
2018-07-07T17:05:19.470Z,1116.00
2018-07-07T17:06:19.450Z,1272.00
2018-07-07T17:07:19.422Z,1364.00
2018-07-07T17:08:19.402Z,1380.00
2018-07-07T17:09:19.408Z,1488.00
2018-07-07T17:10:19.480Z,1288.00
2018-07-07T17:11:19.376Z,1308.00
2018-07-07T17:12:19.335Z,1216.00
2018-07-07T17:13:19.323Z,1196.00
2018-07-07T17:14:19.305Z,1172.00
2018-07-07T17:15:19.295Z,1172.00
2018-07-07T17:16:19.375Z,1144.00
2018-07-07T17:17:19.262Z,1276.00
2018-07-07T17:18:19.293Z,1456.00
2018-07-07T17:19:19.243Z,1400.00
2018-07-07T17:20:19.222Z,1400.00
2018-07-07T17:21:19.331Z,1460.00
2018-07-07T17:22:19.164Z,1524.00
2018-07-07T17:23:19.276Z,1524.00
2018-07-07T17:24:19.128Z,1496.00
2018-07-07T17:25:19.128Z,1444.00
2018-07-07T17:26:19.208Z,1196.00
2018-07-07T17:27:19.077Z,820.00
2018-07-07T17:28:19.080Z,748.00
2018-07-07T17:29:19.037Z,668.00
2018-07-07T17:30:19.048Z,628.00
2018-07-07T17:31:19.008Z,596.00
2018-07-07T17:32:19.092Z,560.00
2018-07-07T17:33:18.970Z,532.00
2018-07-07T17:34:18.948Z,508.00
2018-07-07T17:35:18.952Z,492.00
2018-07-07T17:36:18.937Z,496.00
2018-07-07T17:37:18.954Z,496.00
2018-07-07T17:38:19.010Z,524.00
2018-07-07T17:39:18.950Z,512.00
2018-07-07T17:40:18.855Z,396.00
2018-07-07T17:41:18.929Z,360.00
2018-07-07T17:42:19.316Z,336.00
2018-07-07T17:43:19.021Z,300.00
2018-07-07T17:44:18.848Z,296.00
2018-07-07T17:45:18.813Z,296.00
2018-07-07T17:46:18.893Z,296.00
2018-07-07T17:47:18.738Z,288.00
2018-07-07T17:48:18.814Z,320.00
2018-07-07T17:49:18.743Z,364.00
2018-07-07T17:50:18.679Z,376.00
2018-07-07T17:51:18.665Z,396.00
2018-07-07T17:52:18.649Z,460.00
2018-07-07T17:53:18.784Z,560.00
2018-07-07T17:54:18.600Z,696.00
2018-07-07T17:55:18.583Z,756.00
2018-07-07T17:56:18.641Z,700.00
2018-07-07T17:57:18.560Z,712.00
2018-07-07T17:58:18.613Z,720.00
2018-07-07T17:59:18.531Z,740.00
2018-07-07T18:00:18.521Z,696.00
2018-07-07T18:01:18.487Z,656.00
2018-07-07T18:02:18.460Z,552.00
2018-07-07T18:03:18.431Z,456.00
2018-07-07T18:04:18.506Z,400.00
2018-07-07T18:05:18.393Z,364.00
2018-07-07T18:06:18.390Z,336.00
2018-07-07T18:07:18.363Z,328.00
2018-07-07T18:08:18.352Z,344.00
2018-07-07T18:09:18.317Z,340.00
2018-07-07T18:10:18.397Z,324.00
2018-07-07T18:11:18.318Z,300.00
2018-07-07T18:12:18.273Z,316.00
2018-07-07T18:13:18.260Z,332.00
2018-07-07T18:14:18.284Z,352.00
2018-07-07T18:15:18.352Z,416.00
2018-07-07T18:16:18.216Z,528.00
2018-07-07T18:17:18.148Z,600.00
2018-07-07T18:18:18.145Z,600.00
2018-07-07T18:19:18.256Z,600.00
2018-07-07T18:20:18.189Z,544.00
2018-07-07T18:21:18.257Z,532.00
2018-07-07T18:22:18.127Z,556.00
2018-07-07T18:23:18.051Z,540.00
2018-07-07T18:24:18.077Z,500.00
2018-07-07T18:25:18.016Z,604.00
2018-07-07T18:26:18.110Z,412.00
2018-07-07T18:27:18.074Z,380.00
2018-07-07T18:28:17.958Z,332.00
2018-07-07T18:29:17.913Z,304.00
2018-07-07T18:30:17.945Z,264.00
2018-07-07T18:31:17.872Z,244.00
2018-07-07T18:32:17.965Z,208.00
2018-07-07T18:33:17.848Z,180.00
2018-07-07T18:34:17.823Z,168.00
2018-07-07T18:35:17.813Z,164.00
2018-07-07T18:36:17.806Z,156.00
2018-07-07T18:37:17.854Z,144.00
2018-07-07T18:38:17.745Z,124.00
2018-07-07T18:39:17.735Z,108.00
2018-07-07T18:40:17.705Z,104.00
2018-07-07T18:41:17.695Z,100.00
2018-07-07T18:42:17.777Z,88.00
2018-07-07T18:43:17.688Z,80.00
2018-07-07T18:44:17.666Z,76.00
2018-07-07T18:45:17.649Z,68.00
2018-07-07T18:46:17.650Z,64.00
2018-07-07T18:47:17.709Z,60.00
2018-07-07T18:48:17.557Z,56.00
2018-07-07T18:49:17.532Z,56.00
2018-07-07T18:50:17.519Z,56.00
2018-07-07T18:51:17.519Z,56.00
2018-07-07T18:52:17.473Z,56.00
2018-07-07T18:53:17.545Z,64.00
2018-07-07T18:54:17.428Z,68.00
2018-07-07T18:55:17.435Z,80.00
2018-07-07T18:56:17.461Z,100.00
2018-07-07T18:57:17.365Z,120.00
2018-07-07T18:58:17.337Z,128.00
2018-07-07T18:59:17.369Z,152.00
2018-07-07T19:00:17.296Z,156.00
2018-07-07T19:01:17.281Z,156.00
2018-07-07T19:02:17.248Z,168.00
2018-07-07T19:03:17.296Z,192.00
2018-07-07T19:04:17.266Z,216.00
2018-07-07T19:05:17.280Z,232.00
2018-07-07T19:06:17.160Z,224.00
2018-07-07T19:07:17.130Z,228.00
2018-07-07T19:08:17.127Z,244.00
2018-07-07T19:09:17.109Z,244.00
2018-07-07T19:10:17.143Z,252.00
2018-07-07T19:11:17.206Z,268.00
2018-07-07T19:12:17.057Z,288.00
2018-07-07T19:13:17.016Z,304.00
2018-07-07T19:14:17.040Z,304.00
2018-07-07T19:15:16.987Z,296.00
2018-07-07T19:16:17.060Z,280.00
2018-07-07T19:17:16.958Z,244.00
2018-07-07T19:18:16.911Z,228.00
2018-07-07T19:19:16.957Z,216.00
2018-07-07T19:20:16.854Z,208.00
2018-07-07T19:21:16.884Z,200.00
2018-07-07T19:22:16.838Z,184.00
2018-07-07T19:23:16.796Z,188.00
2018-07-07T19:24:16.791Z,192.00
2018-07-07T19:25:16.755Z,204.00
2018-07-07T19:26:16.904Z,216.00
2018-07-07T19:27:16.700Z,240.00
2018-07-07T19:28:16.685Z,272.00
2018-07-07T19:29:16.751Z,304.00
2018-07-07T19:30:16.662Z,328.00
2018-07-07T19:31:16.723Z,352.00
2018-07-07T19:32:16.601Z,388.00
2018-07-07T19:33:16.576Z,444.00
2018-07-07T19:34:16.582Z,456.00
2018-07-07T19:35:16.595Z,492.00
2018-07-07T19:36:16.613Z,500.00
2018-07-07T19:37:16.502Z,524.00
2018-07-07T19:38:16.476Z,536.00
2018-07-07T19:39:16.459Z,516.00
2018-07-07T19:40:16.425Z,488.00
2018-07-07T19:41:16.394Z,484.00
2018-07-07T19:42:16.478Z,488.00
2018-07-07T19:43:16.376Z,504.00
2018-07-07T19:44:16.333Z,536.00
2018-07-07T19:45:16.321Z,568.00
2018-07-07T19:46:16.340Z,600.00
2018-07-07T19:47:16.296Z,632.00
2018-07-07T19:48:16.362Z,672.00
2018-07-07T19:49:16.210Z,720.00
2018-07-07T19:50:16.200Z,780.00
2018-07-07T19:51:16.267Z,844.00
2018-07-07T19:52:16.149Z,856.00
2018-07-07T19:53:16.236Z,884.00
2018-07-07T19:54:16.120Z,944.00
2018-07-07T19:55:16.088Z,1452.00
2018-07-07T19:56:16.067Z,1160.00
2018-07-07T19:57:16.091Z,1168.00
2018-07-07T19:58:16.125Z,1316.00
2018-07-07T19:59:16.055Z,1324.00
2018-07-07T20:00:15.991Z,1060.00
2018-07-07T20:01:15.969Z,788.00
2018-07-07T20:02:15.939Z,704.00
2018-07-07T20:03:15.989Z,740.00
2018-07-07T20:04:15.897Z,676.00
2018-07-07T20:05:16.410Z,720.00
2018-07-07T20:06:15.930Z,908.00
2018-07-07T20:07:16.047Z,1096.00
2018-07-07T20:08:15.877Z,808.00
2018-07-07T20:09:15.790Z,1440.00
2018-07-07T20:10:15.861Z,1452.00
2018-07-07T20:11:15.752Z,1260.00
2018-07-07T20:12:15.715Z,1444.00
2018-07-07T20:13:15.850Z,1592.00
2018-07-07T20:14:15.858Z,1520.00
2018-07-07T20:15:15.799Z,1196.00
2018-07-07T20:16:16.953Z,1404.00
2018-07-07T20:17:15.733Z,1580.00
2018-07-07T20:18:15.787Z,1572.00
2018-07-07T20:19:15.904Z,1216.00
2018-07-07T20:20:15.674Z,1224.00
2018-07-07T20:21:15.647Z,1548.00
2018-07-07T20:22:15.620Z,2484.00
2018-07-07T20:23:15.711Z,2132.00
2018-07-07T20:24:15.605Z,1720.00
2018-07-07T20:25:15.564Z,1704.00
2018-07-07T20:26:15.526Z,1384.00
2018-07-07T20:27:15.468Z,1228.00
2018-07-07T20:28:15.431Z,1108.00
2018-07-07T20:29:15.479Z,976.00
2018-07-07T20:30:15.359Z,884.00
2018-07-07T20:31:15.469Z,840.00
2018-07-07T20:32:15.392Z,808.00
2018-07-07T20:33:15.279Z,780.00
2018-07-07T20:34:15.323Z,756.00
2018-07-07T20:35:15.341Z,736.00
2018-07-07T20:36:15.237Z,724.00
2018-07-07T20:37:15.226Z,708.00
2018-07-07T20:38:15.182Z,716.00
2018-07-07T20:39:15.230Z,728.00
2018-07-07T20:40:15.260Z,732.00
2018-07-07T20:41:15.111Z,736.00
2018-07-07T20:42:15.119Z,740.00
2018-07-07T20:43:15.094Z,740.00
2018-07-07T20:44:15.054Z,732.00
2018-07-07T20:45:15.138Z,720.00
2018-07-07T20:46:15.046Z,704.00
2018-07-07T20:47:15.026Z,680.00
2018-07-07T20:48:14.978Z,692.00
2018-07-07T20:49:14.979Z,664.00
2018-07-07T20:50:15.057Z,636.00
2018-07-07T20:51:14.954Z,616.00
2018-07-07T20:52:14.900Z,604.00
2018-07-07T20:53:14.864Z,624.00
2018-07-07T20:54:14.907Z,660.00
2018-07-07T20:55:14.947Z,672.00
2018-07-07T20:56:14.817Z,656.00
2018-07-07T20:57:14.800Z,752.00
2018-07-07T20:58:14.817Z,784.00
2018-07-07T20:59:14.776Z,864.00
2018-07-07T21:00:14.833Z,880.00
2018-07-07T21:01:14.708Z,868.00
2018-07-07T21:02:14.765Z,852.00
2018-07-07T21:03:14.680Z,896.00
2018-07-07T21:04:14.640Z,900.00
2018-07-07T21:05:14.724Z,944.00
2018-07-07T21:06:14.716Z,928.00
2018-07-07T21:07:14.584Z,900.00
2018-07-07T21:08:14.579Z,832.00
2018-07-07T21:09:14.540Z,920.00
2018-07-07T21:10:14.544Z,972.00
2018-07-07T21:11:14.644Z,1000.00
2018-07-07T21:12:14.538Z,1024.00
2018-07-07T21:13:14.476Z,1056.00
2018-07-07T21:14:14.439Z,1076.00
2018-07-07T21:15:14.411Z,1068.00
2018-07-07T21:16:14.402Z,1112.00
2018-07-07T21:17:14.466Z,1148.00
2018-07-07T21:18:14.352Z,1184.00
2018-07-07T21:19:14.337Z,1204.00
2018-07-07T21:20:14.302Z,1172.00
2018-07-07T21:21:14.318Z,1168.00
2018-07-07T21:22:14.276Z,1080.00
2018-07-07T21:23:15.618Z,1004.00
2018-07-07T21:24:15.050Z,944.00
2018-07-07T21:25:14.520Z,952.00
2018-07-07T21:26:14.440Z,956.00
2018-07-07T21:27:14.303Z,928.00
2018-07-07T21:28:14.132Z,892.00
2018-07-07T21:29:14.235Z,868.00
2018-07-07T21:30:14.117Z,860.00
2018-07-07T21:31:14.075Z,844.00
2018-07-07T21:32:14.055Z,820.00
2018-07-07T21:33:14.036Z,800.00
2018-07-07T21:34:14.125Z,768.00
2018-07-07T21:35:14.005Z,744.00
2018-07-07T21:36:13.988Z,728.00
2018-07-07T21:37:13.963Z,724.00
2018-07-07T21:38:13.958Z,720.00
2018-07-07T21:39:14.022Z,716.00
2018-07-07T21:40:13.892Z,712.00
2018-07-07T21:41:13.872Z,716.00
2018-07-07T21:42:13.849Z,716.00
2018-07-07T21:43:13.827Z,708.00
2018-07-07T21:44:13.930Z,708.00
2018-07-07T21:45:13.803Z,704.00
2018-07-07T21:46:13.768Z,712.00
2018-07-07T21:47:13.788Z,668.00
2018-07-07T21:48:13.744Z,712.00
2018-07-07T21:49:13.948Z,716.00
2018-07-07T21:50:13.705Z,724.00
2018-07-07T21:51:13.665Z,748.00
2018-07-07T21:52:13.662Z,768.00
2018-07-07T21:53:13.633Z,772.00
2018-07-07T21:54:13.793Z,780.00
2018-07-07T21:55:13.590Z,788.00
2018-07-07T21:56:13.564Z,800.00
2018-07-07T21:57:13.530Z,792.00
2018-07-07T21:58:13.537Z,776.00
2018-07-07T21:59:13.542Z,772.00
2018-07-07T22:00:13.707Z,768.00
2018-07-07T22:01:13.580Z,772.00
2018-07-07T22:02:13.454Z,780.00
2018-07-07T22:03:13.411Z,788.00
2018-07-07T22:04:13.403Z,800.00
2018-07-07T22:05:13.358Z,808.00
2018-07-07T22:06:13.490Z,812.00
2018-07-07T22:07:13.360Z,804.00
2018-07-07T22:08:13.690Z,804.00
2018-07-07T22:09:13.339Z,804.00
2018-07-07T22:10:13.292Z,804.00
2018-07-07T22:11:13.324Z,808.00
2018-07-07T22:12:13.340Z,820.00
2018-07-07T22:13:13.184Z,848.00
2018-07-07T22:14:13.201Z,896.00
2018-07-07T22:15:13.173Z,944.00
2018-07-07T22:16:13.214Z,996.00
2018-07-07T22:17:13.257Z,1140.00
2018-07-07T22:18:13.134Z,1624.00
2018-07-07T22:19:13.090Z,2908.00
2018-07-07T22:20:13.051Z,4720.00
2018-07-07T22:21:13.017Z,5460.00
2018-07-07T22:22:13.096Z,2824.00
2018-07-07T22:23:13.004Z,2196.00
2018-07-07T22:24:12.985Z,5232.00
2018-07-07T22:25:12.934Z,4572.00
2018-07-07T22:26:12.945Z,4228.00
2018-07-07T22:27:13.028Z,4540.00
2018-07-07T22:28:12.970Z,4872.00
2018-07-07T22:29:12.875Z,3888.00
2018-07-07T22:30:12.968Z,2512.00
2018-07-07T22:31:12.835Z,1712.00
2018-07-07T22:32:12.938Z,1384.00
2018-07-07T22:33:12.794Z,1120.00
2018-07-07T22:34:12.786Z,980.00
2018-07-07T22:35:12.755Z,856.00
2018-07-07T22:36:12.720Z,800.00
2018-07-07T22:37:12.836Z,756.00
2018-07-07T22:38:12.775Z,716.00
2018-07-07T22:39:12.702Z,684.00
2018-07-07T22:40:12.679Z,660.00
2018-07-07T22:41:12.633Z,656.00
2018-07-07T22:42:12.624Z,648.00
2018-07-07T22:43:12.600Z,632.00
2018-07-07T22:44:12.726Z,624.00
2018-07-07T22:45:12.584Z,624.00
2018-07-07T22:46:12.537Z,620.00
2018-07-07T22:47:12.508Z,620.00
2018-07-07T22:48:12.632Z,616.00
2018-07-07T22:49:12.632Z,608.00
2018-07-07T22:50:12.578Z,600.00
2018-07-07T22:51:12.429Z,596.00
2018-07-07T22:52:12.398Z,580.00
2018-07-07T22:53:12.374Z,572.00
2018-07-07T22:54:12.352Z,556.00
2018-07-07T22:55:12.337Z,540.00
2018-07-07T22:56:12.555Z,532.00
2018-07-07T22:57:12.305Z,512.00
2018-07-07T22:58:12.289Z,492.00
2018-07-07T22:59:12.244Z,452.00
2018-07-07T23:00:12.278Z,404.00
2018-07-07T23:01:12.229Z,368.00
2018-07-07T23:02:12.303Z,376.00
2018-07-07T23:03:12.136Z,396.00
2018-07-07T23:04:12.171Z,400.00
2018-07-07T23:05:12.150Z,400.00
2018-07-07T23:06:12.102Z,404.00
2018-07-07T23:07:12.280Z,412.00
2018-07-07T23:08:12.077Z,416.00
2018-07-07T23:09:12.053Z,404.00
2018-07-07T23:10:12.068Z,380.00
2018-07-07T23:11:11.998Z,360.00
2018-07-07T23:12:12.084Z,340.00
2018-07-07T23:13:12.028Z,320.00
2018-07-07T23:14:12.023Z,316.00
2018-07-07T23:15:12.035Z,324.00
2018-07-07T23:16:11.885Z,332.00
2018-07-07T23:17:11.985Z,328.00
2018-07-07T23:18:11.861Z,324.00
2018-07-07T23:19:11.825Z,332.00
2018-07-07T23:20:11.823Z,328.00
2018-07-07T23:21:12.307Z,324.00
2018-07-07T23:22:11.802Z,324.00
2018-07-07T23:23:11.902Z,316.00
2018-07-07T23:24:11.766Z,312.00
2018-07-07T23:25:11.707Z,304.00
2018-07-07T23:26:11.725Z,296.00
2018-07-07T23:27:11.658Z,288.00
2018-07-07T23:28:11.748Z,284.00
2018-07-07T23:29:11.636Z,276.00
2018-07-07T23:30:11.612Z,268.00
2018-07-07T23:31:11.574Z,260.00
2018-07-07T23:32:11.549Z,248.00
2018-07-07T23:33:11.565Z,236.00
2018-07-07T23:34:11.629Z,228.00
2018-07-07T23:35:11.526Z,224.00
2018-07-07T23:36:11.459Z,212.00
2018-07-07T23:37:11.431Z,200.00
2018-07-07T23:38:11.436Z,192.00
2018-07-07T23:39:11.407Z,188.00
2018-07-07T23:40:11.465Z,184.00
2018-07-07T23:41:11.367Z,176.00
2018-07-07T23:42:11.335Z,168.00
2018-07-07T23:43:11.365Z,160.00
2018-07-07T23:44:11.382Z,152.00
2018-07-07T23:45:11.378Z,140.00
2018-07-07T23:46:11.258Z,124.00
2018-07-07T23:47:11.238Z,108.00
2018-07-07T23:48:11.211Z,84.00
2018-07-07T23:49:11.166Z,60.00
2018-07-07T23:50:11.276Z,44.00
2018-07-07T23:51:11.140Z,36.00
2018-07-07T23:52:11.131Z,32.00
2018-07-07T23:53:11.146Z,28.00
2018-07-07T23:54:11.063Z,24.00
2018-07-07T23:55:11.218Z,24.00
2018-07-07T23:56:11.056Z,24.00
2018-07-07T23:57:11.019Z,24.00
2018-07-07T23:58:11.045Z,20.00
2018-07-07T23:59:10.965Z,20.00
